Time;durP1;ratioP1;P1;durP2;ratioP2;P2;SDS_P1;SDS_P2;PMS_P1;PMS_P2;Temp;Humidity;BMP_temperature;BMP_pressure;BME280_temperature;BME280_humidity;BME280_pressure;Samples;Min_cycle;Max_cycle;Signal;HPM_P1;HPM_P2
2022/12/09 00:02:28;;;;;;;58.70;32.40;;;-0.50;99.90;;;;;;4973613;28;20457;-77
2022/12/09 00:04:55;;;;;;;57.10;29.63;;;-0.50;99.90;;;;;;4970904;28;20460;-78
2022/12/09 00:07:22;;;;;;;69.50;31.90;;;-0.50;99.90;;;;;;4954695;28;20765;-77
2022/12/09 00:09:48;;;;;;;56.10;28.50;;;-0.50;99.90;;;;;;4957731;29;20492;-78
2022/12/09 00:12:15;;;;;;;54.10;30.43;;;-0.50;99.90;;;;;;4957806;29;20507;-77
2022/12/09 00:14:42;;;;;;;49.70;30.87;;;-0.50;99.90;;;;;;4968269;28;20469;-77
2022/12/09 00:17:09;;;;;;;56.97;29.90;;;-0.60;99.90;;;;;;4977562;28;20490;-78
2022/12/09 00:19:37;;;;;;;49.03;28.47;;;-0.60;99.90;;;;;;4978589;28;20461;-77
2022/12/09 00:22:04;;;;;;;40.97;25.87;;;-0.60;99.90;;;;;;4978696;28;20640;-80
2022/12/09 00:24:30;;;;;;;46.03;25.47;;;-0.60;99.90;;;;;;4979476;28;20463;-77
2022/12/09 00:26:57;;;;;;;47.70;25.20;;;-0.60;99.90;;;;;;4980233;28;20457;-78
2022/12/09 00:29:24;;;;;;;42.97;25.47;;;-0.60;99.90;;;;;;4980753;28;20452;-77
2022/12/09 00:31:51;;;;;;;49.37;26.83;;;-0.70;99.90;;;;;;4980688;28;20563;-77
2022/12/09 00:34:18;;;;;;;44.30;25.53;;;-0.90;99.90;;;;;;4980504;28;20472;-77
2022/12/09 00:36:46;;;;;;;56.27;27.37;;;-0.90;99.90;;;;;;4980552;28;20454;-80
2022/12/09 00:39:13;;;;;;;51.80;26.30;;;-0.80;99.90;;;;;;4979584;28;20540;-78
2022/12/09 00:41:39;;;;;;;50.63;28.40;;;-0.90;99.90;;;;;;4979580;28;20447;-78
2022/12/09 00:44:06;;;;;;;47.53;24.63;;;-0.90;99.90;;;;;;4978839;28;20449;-77
2022/12/09 00:46:33;;;;;;;45.00;25.53;;;-0.90;99.90;;;;;;4978615;28;20464;-78
2022/12/09 00:49:00;;;;;;;46.17;25.90;;;-0.90;99.90;;;;;;4979176;28;20456;-78
2022/12/09 00:51:27;;;;;;;65.00;31.70;;;-0.90;99.90;;;;;;4979605;28;20861;-78
2022/12/09 00:53:55;;;;;;;59.40;27.73;;;-1.00;99.90;;;;;;4978234;28;20463;-78
2022/12/09 00:56:22;;;;;;;75.87;30.60;;;-1.00;99.90;;;;;;4977303;28;20472;-78
2022/12/09 00:58:49;;;;;;;58.00;28.43;;;-1.00;99.90;;;;;;4977695;28;20464;-78
2022/12/09 01:01:16;;;;;;;60.40;26.80;;;-0.90;99.90;;;;;;4977450;28;20463;-78
2022/12/09 01:03:42;;;;;;;49.57;28.97;;;-0.90;99.90;;;;;;4976586;28;20477;-78
2022/12/09 01:06:11;;;;;;;50.10;23.70;;;-0.90;99.90;;;;;;4977675;28;20450;-79
2022/12/09 01:08:38;;;;;;;54.97;23.43;;;-0.90;99.90;;;;;;4977292;28;20453;-77
2022/12/09 01:11:11;;;;;;;50.60;22.07;;;-0.90;99.90;;;;;;4977761;28;20981;-77
2022/12/09 01:13:38;;;;;;;47.20;23.07;;;-0.90;99.90;;;;;;4978581;28;20540;-78
2022/12/09 01:16:12;;;;;;;36.73;21.40;;;-1.00;99.90;;;;;;4978927;28;20503;-78
2022/12/09 01:18:39;;;;;;;41.60;19.90;;;-1.00;99.90;;;;;;4979864;28;20479;-80
2022/12/09 01:21:06;;;;;;;41.97;21.47;;;-1.10;99.90;;;;;;4979102;28;20479;-77
2022/12/09 01:23:33;;;;;;;42.73;21.37;;;-1.00;99.90;;;;;;4980381;28;20453;-78
2022/12/09 01:26:00;;;;;;;34.83;20.00;;;-1.00;99.90;;;;;;4982494;28;20509;-77
2022/12/09 01:28:28;;;;;;;36.97;22.07;;;-1.00;99.90;;;;;;4981019;28;20460;-79
2022/12/09 01:30:55;;;;;;;36.53;22.80;;;-1.00;99.90;;;;;;4975073;28;20454;-77
2022/12/09 01:33:21;;;;;;;49.40;22.80;;;-1.00;99.90;;;;;;4973502;28;20507;-72
2022/12/09 01:35:48;;;;;;;43.97;22.50;;;-1.00;99.90;;;;;;4971247;28;20468;-71
2022/12/09 01:38:15;;;;;;;36.70;21.73;;;-0.90;99.90;;;;;;4971747;28;20483;-71
2022/12/09 01:40:46;;;;;;;37.27;22.40;;;-1.00;99.90;;;;;;4971156;28;20516;-73
2022/12/09 01:43:17;;;;;;;47.07;25.53;;;-1.00;99.90;;;;;;4971260;28;20651;-73
2022/12/09 01:45:46;;;;;;;43.80;23.27;;;-1.00;99.90;;;;;;4971221;28;20949;-71
2022/12/09 01:48:14;;;;;;;43.03;23.73;;;-0.90;99.90;;;;;;4971583;28;20455;-71
2022/12/09 01:50:44;;;;;;;47.43;28.33;;;-0.90;99.90;;;;;;4970302;28;20473;-73
2022/12/09 01:53:13;;;;;;;56.77;29.57;;;-0.90;99.90;;;;;;4971014;28;20490;-74
2022/12/09 01:55:40;;;;;;;45.90;24.70;;;-1.00;99.90;;;;;;4971416;28;20702;-72
2022/12/09 01:58:08;;;;;;;52.43;25.00;;;-1.00;99.90;;;;;;4971704;28;20460;-72
2022/12/09 02:00:34;;;;;;;48.00;24.37;;;-1.00;99.90;;;;;;4971448;28;20461;-73
2022/12/09 02:03:03;;;;;;;43.17;23.60;;;-1.00;99.90;;;;;;4971043;28;20465;-72
2022/12/09 02:05:30;;;;;;;43.60;25.53;;;-1.00;99.90;;;;;;4971112;28;20473;-71
2022/12/09 02:07:58;;;;;;;43.73;24.60;;;-1.00;99.90;;;;;;4970759;28;20489;-72
2022/12/09 02:10:25;;;;;;;39.67;23.80;;;-1.00;99.90;;;;;;4971602;28;20587;-73
2022/12/09 02:13:03;;;;;;;42.00;22.77;;;-1.00;99.90;;;;;;4971212;28;20503;-72
2022/12/09 02:15:36;;;;;;;41.87;22.47;;;-1.00;99.90;;;;;;4971054;28;20480;-72
2022/12/09 02:18:12;;;;;;;46.13;22.53;;;-1.00;99.90;;;;;;4972570;28;20456;-72
2022/12/09 02:20:41;;;;;;;39.60;21.87;;;-0.90;99.90;;;;;;4971921;28;20459;-72
2022/12/09 02:23:14;;;;;;;48.07;23.33;;;-0.90;99.90;;;;;;4971182;28;20520;-74
2022/12/09 02:25:45;;;;;;;36.57;19.97;;;-1.00;99.90;;;;;;4970277;28;20462;-72
2022/12/09 02:28:47;;;;;;;43.77;19.17;;;-1.00;99.90;;;;;;4970881;28;20464;-72
2022/12/09 02:31:24;;;;;;;40.50;21.30;;;-1.00;99.90;;;;;;4970223;28;20557;-72
2022/12/09 02:34:10;;;;;;;32.27;19.20;;;-1.00;99.90;;;;;;4970412;28;20484;-72
2022/12/09 02:36:48;;;;;;;31.27;16.77;;;-1.00;99.90;;;;;;4970392;28;20459;-73
2022/12/09 02:39:15;;;;;;;33.70;18.33;;;-1.00;99.90;;;;;;4972322;28;20464;-73
2022/12/09 02:41:46;;;;;;;37.43;19.07;;;-1.00;99.90;;;;;;4969897;28;20968;-73
2022/12/09 02:44:16;;;;;;;34.57;16.43;;;-0.90;99.90;;;;;;4970191;28;20988;-72
2022/12/09 02:46:45;;;;;;;29.97;17.47;;;-0.90;99.90;;;;;;4970381;28;20504;-74
2022/12/09 02:49:14;;;;;;;27.50;14.77;;;-0.90;99.90;;;;;;4970087;28;20457;-72
2022/12/09 02:51:43;;;;;;;27.90;16.13;;;-0.90;99.90;;;;;;4969956;28;20517;-73
2022/12/09 02:54:13;;;;;;;31.17;17.73;;;-0.80;99.90;;;;;;4969848;28;20454;-72
2022/12/09 02:56:45;;;;;;;26.43;14.90;;;-0.80;99.90;;;;;;4970198;28;20456;-72
2022/12/09 02:59:11;;;;;;;27.83;15.03;;;-0.80;99.90;;;;;;4969198;28;20474;-72
2022/12/09 03:01:45;;;;;;;25.77;15.20;;;-0.80;99.90;;;;;;4969870;28;20448;-71
2022/12/09 03:04:20;;;;;;;16.90;10.77;;;-0.80;99.90;;;;;;4969959;28;20457;-71
2022/12/09 03:06:52;;;;;;;17.33;9.90;;;-0.70;99.90;;;;;;4969731;28;20826;-71
2022/12/09 03:09:23;;;;;;;14.33;10.17;;;-0.80;99.90;;;;;;4969701;28;21008;-72
2022/12/09 03:11:52;;;;;;;10.10;7.70;;;-0.80;99.90;;;;;;4969661;28;20459;-73
2022/12/09 03:14:25;;;;;;;13.73;8.90;;;-0.80;99.90;;;;;;4969553;28;20547;-72
2022/12/09 03:16:56;;;;;;;16.40;8.53;;;-0.80;99.90;;;;;;4968694;28;20473;-72
2022/12/09 03:19:29;;;;;;;11.93;8.30;;;-0.80;99.90;;;;;;4969257;28;20554;-73
2022/12/09 03:21:59;;;;;;;13.70;7.30;;;-0.80;99.90;;;;;;4969468;28;20457;-72
2022/12/09 03:24:32;;;;;;;15.87;8.63;;;-0.70;99.90;;;;;;4969306;28;20659;-72
2022/12/09 03:27:02;;;;;;;16.17;8.40;;;-0.70;99.90;;;;;;4969173;28;20632;-72
2022/12/09 03:29:32;;;;;;;16.37;8.33;;;-0.70;99.90;;;;;;4969910;28;20812;-72
2022/12/09 03:31:59;;;;;;;13.83;8.87;;;-0.70;99.90;;;;;;4960898;28;20554;-72
2022/12/09 03:34:32;;;;;;;35.93;17.70;;;-0.70;99.90;;;;;;4950459;29;20455;-72
2022/12/09 03:37:01;;;;;;;33.90;19.90;;;-0.80;99.90;;;;;;4950507;29;20533;-72
2022/12/09 03:39:32;;;;;;;29.67;20.17;;;-0.80;99.90;;;;;;4950308;29;20450;-72
2022/12/09 03:42:02;;;;;;;30.13;19.00;;;-1.00;99.90;;;;;;4950647;29;20984;-72
2022/12/09 03:44:34;;;;;;;38.43;20.87;;;-1.00;99.90;;;;;;4953157;28;20445;-71
2022/12/09 03:47:02;;;;;;;33.23;19.27;;;-1.00;99.90;;;;;;4954161;29;20462;-72
2022/12/09 03:49:31;;;;;;;34.67;17.87;;;-1.10;99.90;;;;;;4954580;28;20462;-73
2022/12/09 03:52:04;;;;;;;16.60;9.73;;;-1.10;99.90;;;;;;4956518;29;20449;-73
2022/12/09 03:54:35;;;;;;;18.67;11.87;;;-1.00;99.90;;;;;;4955106;29;20462;-71
2022/12/09 03:57:03;;;;;;;12.00;8.80;;;-0.90;99.90;;;;;;4958974;28;20460;-75
2022/12/09 03:59:34;;;;;;;8.67;7.23;;;-0.90;99.90;;;;;;4974340;28;20460;-75
2022/12/09 04:02:02;;;;;;;9.87;7.13;;;-0.80;99.90;;;;;;4974401;28;20464;-76
2022/12/09 04:04:30;;;;;;;11.93;8.27;;;-0.70;99.90;;;;;;4970417;28;20596;-72
2022/12/09 04:06:58;;;;;;;10.50;7.70;;;-0.60;99.90;;;;;;4953645;29;20958;-71
2022/12/09 04:09:25;;;;;;;11.10;7.10;;;-0.60;99.90;;;;;;4953492;29;20481;-71
2022/12/09 04:11:52;;;;;;;14.03;8.93;;;-0.50;99.90;;;;;;4953766;29;20457;-71
2022/12/09 04:14:19;;;;;;;11.93;7.60;;;-0.60;99.90;;;;;;4953802;29;20861;-72
2022/12/09 04:16:45;;;;;;;14.23;7.17;;;-0.70;99.90;;;;;;4953306;28;20732;-74
2022/12/09 04:19:12;;;;;;;12.83;6.80;;;-0.70;99.90;;;;;;4953901;29;20514;-71
2022/12/09 04:21:40;;;;;;;9.93;6.90;;;-0.70;99.90;;;;;;4953325;28;20483;-71
2022/12/09 04:24:08;;;;;;;12.17;7.60;;;-0.70;99.90;;;;;;4953603;29;20462;-71
2022/12/09 04:26:35;;;;;;;11.30;7.83;;;-0.60;99.90;;;;;;4954039;29;20457;-74
2022/12/09 04:29:02;;;;;;;12.30;7.83;;;-0.50;99.90;;;;;;4953651;29;20469;-71
2022/12/09 04:31:29;;;;;;;11.97;8.20;;;-0.50;99.90;;;;;;4955256;29;20869;-73
2022/12/09 04:33:56;;;;;;;11.13;7.63;;;-0.40;99.90;;;;;;4957224;29;20498;-72
2022/12/09 04:36:22;;;;;;;10.33;6.63;;;-0.40;99.90;;;;;;4956458;29;20465;-72
2022/12/09 04:38:51;;;;;;;13.40;9.10;;;-0.40;99.90;;;;;;4956794;28;20484;-71
2022/12/09 04:41:17;;;;;;;10.20;8.50;;;-0.40;99.90;;;;;;4957558;29;20462;-73
2022/12/09 04:43:44;;;;;;;12.70;8.33;;;-0.40;99.90;;;;;;4953934;29;20458;-72
2022/12/09 04:46:14;;;;;;;16.07;9.83;;;-0.40;99.90;;;;;;4953003;29;20489;-73
2022/12/09 04:48:41;;;;;;;13.57;7.73;;;-0.40;99.90;;;;;;4953049;29;20463;-72
2022/12/09 04:51:08;;;;;;;11.37;9.13;;;-0.40;99.90;;;;;;4952987;29;21058;-71
2022/12/09 04:53:36;;;;;;;11.80;8.23;;;-0.40;99.90;;;;;;4953023;28;20489;-73
2022/12/09 04:56:07;;;;;;;17.60;9.67;;;-0.40;99.90;;;;;;4954117;28;20467;-73
2022/12/09 04:58:34;;;;;;;19.57;10.33;;;-0.40;99.90;;;;;;4953265;29;21036;-72
2022/12/09 05:01:05;;;;;;;13.30;8.70;;;-0.50;99.90;;;;;;4959405;28;20470;-76
2022/12/09 05:03:32;;;;;;;11.83;8.70;;;-0.50;99.90;;;;;;4968001;28;20497;-72
2022/12/09 05:05:59;;;;;;;10.03;8.90;;;-0.60;99.90;;;;;;4971315;28;20461;-71
2022/12/09 05:08:26;;;;;;;19.57;11.23;;;-0.60;99.90;;;;;;4968134;28;20478;-73
2022/12/09 05:10:53;;;;;;;15.07;9.00;;;-0.60;99.90;;;;;;4968009;28;20485;-74
2022/12/09 05:13:21;;;;;;;13.27;8.30;;;-0.50;99.90;;;;;;4971981;28;20576;-71
2022/12/09 05:15:48;;;;;;;12.47;8.90;;;-0.50;99.90;;;;;;4971824;28;20560;-71
2022/12/09 05:18:14;;;;;;;10.43;7.50;;;-0.50;99.90;;;;;;4952968;28;20568;-71
2022/12/09 05:20:41;;;;;;;12.00;8.20;;;-0.40;99.90;;;;;;4952520;29;20459;-71
2022/12/09 05:23:08;;;;;;;12.60;7.90;;;-0.40;99.90;;;;;;4952682;29;20468;-71
2022/12/09 05:25:35;;;;;;;10.97;7.93;;;-0.40;99.90;;;;;;4952475;29;20492;-70
2022/12/09 05:28:02;;;;;;;12.90;7.90;;;-0.40;99.90;;;;;;4951780;28;20470;-71
2022/12/09 05:30:30;;;;;;;12.83;9.50;;;-0.30;99.90;;;;;;4972833;28;20544;-72
2022/12/09 05:32:57;;;;;;;17.70;10.87;;;-0.30;99.90;;;;;;4971514;28;20858;-73
2022/12/09 05:35:24;;;;;;;12.93;8.87;;;-0.30;99.90;;;;;;4971778;28;20548;-73
2022/12/09 05:37:51;;;;;;;13.97;9.30;;;-0.30;99.90;;;;;;4971614;28;20548;-70
2022/12/09 05:40:18;;;;;;;13.03;9.63;;;-0.40;99.90;;;;;;4971349;28;20823;-70
2022/12/09 05:42:45;;;;;;;16.03;11.37;;;-0.40;99.90;;;;;;4971267;28;20450;-72
2022/12/09 05:45:12;;;;;;;19.47;10.30;;;-0.40;99.90;;;;;;4952760;28;20638;-70
2022/12/09 05:47:40;;;;;;;16.63;10.63;;;-0.50;99.90;;;;;;4952095;29;20466;-73
2022/12/09 05:50:09;;;;;;;16.57;10.30;;;-0.40;99.90;;;;;;4951866;29;20485;-70
2022/12/09 05:52:36;;;;;;;12.90;8.27;;;-0.40;99.90;;;;;;4952252;29;20457;-73
2022/12/09 05:55:04;;;;;;;21.23;10.43;;;-0.40;99.90;;;;;;4951890;29;20463;-71
2022/12/09 05:57:31;;;;;;;15.37;10.40;;;-0.40;99.90;;;;;;4956342;28;20477;-71
2022/12/09 05:59:58;;;;;;;19.73;10.60;;;-0.30;99.90;;;;;;4951648;28;20507;-70
2022/12/09 06:02:24;;;;;;;19.70;11.17;;;-0.20;99.90;;;;;;4967377;28;20546;-69
2022/12/09 06:04:54;;;;;;;15.60;10.23;;;-0.30;99.90;;;;;;4970749;28;20468;-71
2022/12/09 06:07:21;;;;;;;17.40;9.90;;;-0.30;99.90;;;;;;4970255;28;20484;-71
2022/12/09 06:09:48;;;;;;;16.23;11.43;;;-0.20;99.90;;;;;;4969106;28;20461;-70
2022/12/09 06:12:15;;;;;;;17.33;10.17;;;-0.30;99.90;;;;;;4969338;28;20449;-71
2022/12/09 06:14:42;;;;;;;17.53;11.63;;;-0.30;99.90;;;;;;4969753;28;20516;-72
2022/12/09 06:17:09;;;;;;;17.73;9.93;;;-0.30;99.90;;;;;;4964166;28;20474;-72
2022/12/09 06:19:36;;;;;;;12.13;9.33;;;-0.20;99.90;;;;;;4951901;29;20454;-72
2022/12/09 06:22:04;;;;;;;13.70;8.43;;;-0.20;99.90;;;;;;4951622;29;20561;-72
2022/12/09 06:24:32;;;;;;;11.80;8.30;;;-0.20;99.90;;;;;;4951280;29;20467;-71
2022/12/09 06:26:59;;;;;;;15.90;9.13;;;-0.20;99.90;;;;;;4953698;28;20547;-71
2022/12/09 06:29:26;;;;;;;15.90;10.67;;;-0.20;99.90;;;;;;4969228;28;20446;-73
2022/12/09 06:31:52;;;;;;;11.33;8.43;;;-0.20;99.90;;;;;;4968949;28;20773;-73
2022/12/09 06:34:19;;;;;;;9.73;7.27;;;-0.20;99.90;;;;;;4966400;28;20500;-71
2022/12/09 06:36:46;;;;;;;10.43;8.30;;;-0.20;99.90;;;;;;4967919;28;20560;-71
2022/12/09 06:39:14;;;;;;;13.73;7.40;;;-0.20;99.90;;;;;;4970147;28;20974;-71
2022/12/09 06:41:42;;;;;;;10.20;7.90;;;-0.30;99.90;;;;;;4969503;28;20457;-71
2022/12/09 06:44:10;;;;;;;9.20;7.70;;;-0.30;99.90;;;;;;4969813;28;20456;-70
2022/12/09 06:46:37;;;;;;;13.90;7.50;;;-0.20;99.90;;;;;;4970026;28;20508;-70
2022/12/09 06:49:04;;;;;;;12.27;8.80;;;-0.20;99.90;;;;;;4959884;28;20474;-70
2022/12/09 06:51:31;;;;;;;13.93;8.07;;;-0.30;99.90;;;;;;4950921;29;20458;-71
2022/12/09 06:53:58;;;;;;;13.83;8.07;;;-0.30;99.90;;;;;;4950713;29;20494;-71
2022/12/09 06:56:26;;;;;;;18.03;8.33;;;-0.30;99.90;;;;;;4950880;29;20454;-71
2022/12/09 06:58:53;;;;;;;13.13;6.80;;;-0.30;99.90;;;;;;4950939;29;20823;-71
2022/12/09 07:01:23;;;;;;;9.80;6.90;;;-0.20;99.90;;;;;;4950780;29;20548;-72
2022/12/09 07:03:52;;;;;;;9.53;5.97;;;-0.20;99.90;;;;;;4950576;29;20443;-71
2022/12/09 07:06:24;;;;;;;13.70;7.50;;;-0.10;99.90;;;;;;4950509;28;20558;-72
2022/12/09 07:08:51;;;;;;;9.13;6.17;;;-0.10;99.90;;;;;;4950999;29;20858;-71
2022/12/09 07:11:18;;;;;;;13.40;7.33;;;-0.10;99.90;;;;;;4950860;29;20462;-72
2022/12/09 07:13:47;;;;;;;10.93;6.30;;;-0.10;99.90;;;;;;4960486;28;20587;-71
2022/12/09 07:16:14;;;;;;;11.27;6.63;;;0.00;99.90;;;;;;4969673;28;20496;-70
2022/12/09 07:18:41;;;;;;;11.13;6.93;;;0.10;99.90;;;;;;4969312;28;20544;-73
2022/12/09 07:21:09;;;;;;;10.17;6.73;;;0.10;99.90;;;;;;4966416;28;20569;-74
2022/12/09 07:23:36;;;;;;;11.10;7.50;;;0.00;99.90;;;;;;4970787;28;20457;-74
2022/12/09 07:26:04;;;;;;;12.47;7.00;;;-0.10;99.90;;;;;;4970253;28;20461;-71
2022/12/09 07:28:37;;;;;;;10.50;8.20;;;0.00;99.90;;;;;;4970186;28;20548;-71
2022/12/09 07:31:06;;;;;;;11.33;8.30;;;0.00;99.90;;;;;;4969668;28;20556;-71
2022/12/09 07:33:33;;;;;;;13.23;7.70;;;0.00;99.90;;;;;;4974096;28;20484;-71
2022/12/09 07:36:00;;;;;;;10.87;8.07;;;0.00;99.90;;;;;;4975755;28;20462;-75
2022/12/09 07:38:27;;;;;;;12.27;7.57;;;0.00;99.90;;;;;;4958078;28;20516;-69
2022/12/09 07:40:54;;;;;;;9.87;7.20;;;-0.10;99.90;;;;;;4950423;29;20564;-70
2022/12/09 07:43:20;;;;;;;13.20;8.17;;;-0.10;99.90;;;;;;4950474;29;20464;-69
2022/12/09 07:45:48;;;;;;;10.23;8.07;;;-0.20;99.90;;;;;;4950420;29;21082;-70
2022/12/09 07:48:16;;;;;;;11.93;9.13;;;-0.10;99.90;;;;;;4960150;28;20450;-69
2022/12/09 07:50:44;;;;;;;13.37;8.40;;;0.00;99.90;;;;;;4961399;28;20465;-69
2022/12/09 07:53:11;;;;;;;17.00;8.27;;;0.00;99.90;;;;;;4960801;28;20458;-69
2022/12/09 07:55:38;;;;;;;9.80;7.63;;;0.00;99.90;;;;;;4957759;28;20564;-70
2022/12/09 07:58:05;;;;;;;28.37;19.20;;;0.00;99.90;;;;;;4951152;29;20541;-71
2022/12/09 08:00:33;;;;;;;16.23;8.67;;;0.10;99.90;;;;;;4954119;28;20496;-69
2022/12/09 08:03:00;;;;;;;12.47;9.10;;;0.00;99.90;;;;;;4959794;28;20600;-71
2022/12/09 08:05:28;;;;;;;13.77;8.80;;;-0.20;99.90;;;;;;4951328;28;20454;-69
2022/12/09 08:07:55;;;;;;;12.70;8.10;;;0.00;99.90;;;;;;4953419;28;20840;-70
2022/12/09 08:10:21;;;;;;;13.63;7.80;;;0.10;99.90;;;;;;4949482;28;20915;-70
2022/12/09 08:12:49;;;;;;;19.97;9.50;;;0.10;99.90;;;;;;4950336;29;20461;-69
2022/12/09 08:15:18;;;;;;;10.50;8.43;;;0.10;99.90;;;;;;4950372;28;20999;-69
2022/12/09 08:17:46;;;;;;;12.37;9.33;;;0.20;99.90;;;;;;4951420;29;20596;-71
2022/12/09 08:20:13;;;;;;;10.47;8.23;;;0.30;99.90;;;;;;4958057;28;20534;-70
2022/12/09 08:22:42;;;;;;;17.70;10.90;;;0.40;99.90;;;;;;4971763;28;20450;-69
2022/12/09 08:25:10;;;;;;;12.33;9.23;;;0.30;99.90;;;;;;4971797;28;20460;-70
2022/12/09 08:27:37;;;;;;;21.10;11.60;;;0.30;99.90;;;;;;4963391;28;20559;-70
2022/12/09 08:30:05;;;;;;;14.30;10.07;;;0.20;99.90;;;;;;4953463;28;20465;-70
2022/12/09 08:32:32;;;;;;;20.07;10.63;;;0.40;99.90;;;;;;4959029;28;20474;-72
2022/12/09 08:34:59;;;;;;;13.13;8.93;;;0.50;99.90;;;;;;4959686;28;20497;-70
2022/12/09 08:37:26;;;;;;;13.37;8.90;;;0.50;99.90;;;;;;4953717;28;20454;-70
2022/12/09 08:39:57;;;;;;;20.60;11.30;;;0.60;99.90;;;;;;4954320;28;20459;-71
2022/12/09 08:42:24;;;;;;;19.37;9.80;;;0.70;99.90;;;;;;4970434;28;20556;-70
2022/12/09 08:44:51;;;;;;;17.20;10.10;;;0.70;99.90;;;;;;4968243;28;20462;-71
2022/12/09 08:47:18;;;;;;;19.17;10.60;;;0.70;99.90;;;;;;4954894;29;20487;-70
2022/12/09 08:49:44;;;;;;;20.20;11.33;;;0.70;99.90;;;;;;4955142;29;20454;-71
2022/12/09 08:52:11;;;;;;;16.50;11.80;;;0.80;99.90;;;;;;4953981;29;20908;-73
2022/12/09 08:54:38;;;;;;;19.70;12.70;;;0.90;99.90;;;;;;4954028;29;20513;-70
2022/12/09 08:57:06;;;;;;;22.20;13.00;;;0.70;99.90;;;;;;4955425;28;20465;-70
2022/12/09 08:59:33;;;;;;;21.57;13.60;;;0.50;99.90;;;;;;4970413;28;21002;-70
2022/12/09 09:02:00;;;;;;;19.97;12.83;;;0.50;99.90;;;;;;4968177;28;20469;-70
2022/12/09 09:04:27;;;;;;;20.00;12.07;;;0.50;99.90;;;;;;4969172;28;20471;-72
2022/12/09 09:06:54;;;;;;;19.67;11.87;;;0.50;99.90;;;;;;4971232;28;20441;-71
2022/12/09 09:09:22;;;;;;;20.03;11.70;;;0.30;99.90;;;;;;4970763;28;20490;-71
2022/12/09 09:11:49;;;;;;;30.87;14.43;;;0.50;99.90;;;;;;4969628;28;20843;-71
2022/12/09 09:14:17;;;;;;;24.57;13.27;;;0.40;99.90;;;;;;4971211;28;20827;-70
2022/12/09 09:16:45;;;;;;;24.07;13.33;;;0.50;99.90;;;;;;4971094;28;20484;-71
2022/12/09 09:19:15;;;;;;;24.30;14.00;;;0.60;99.90;;;;;;4968181;28;20490;-73
2022/12/09 09:21:42;;;;;;;21.10;13.00;;;0.60;99.90;;;;;;4971091;28;20449;-71
2022/12/09 09:24:11;;;;;;;19.97;11.97;;;0.60;99.90;;;;;;4971469;28;20458;-70
2022/12/09 09:26:40;;;;;;;20.70;14.27;;;0.70;99.90;;;;;;4970868;28;20964;-71
2022/12/09 09:29:07;;;;;;;23.37;13.70;;;0.70;99.90;;;;;;4969082;28;20528;-70
2022/12/09 09:31:36;;;;;;;23.13;14.30;;;0.70;99.90;;;;;;4971248;28;20512;-71
2022/12/09 09:34:03;;;;;;;24.53;12.90;;;0.80;99.90;;;;;;4971847;28;20511;-71
2022/12/09 09:36:30;;;;;;;24.80;15.20;;;0.80;99.90;;;;;;4955158;28;20565;-73
2022/12/09 09:38:57;;;;;;;21.70;14.87;;;0.90;99.90;;;;;;4953977;28;20465;-71
2022/12/09 09:41:36;;;;;;;24.10;15.57;;;1.00;99.90;;;;;;4960923;28;20470;-69
2022/12/09 09:44:04;;;;;;;21.30;14.07;;;1.00;99.90;;;;;;4984036;28;20483;-71
2022/12/09 09:46:37;;;;;;;22.90;13.67;;;1.10;99.90;;;;;;4985648;28;20881;-72
2022/12/09 09:49:10;;;;;;;21.40;13.70;;;1.10;99.90;;;;;;4954873;28;20570;-69
2022/12/09 09:51:37;;;;;;;25.20;13.70;;;1.10;99.90;;;;;;4968762;28;21068;-69
2022/12/09 09:54:04;;;;;;;20.77;13.30;;;1.20;99.90;;;;;;4969431;28;20502;-69
2022/12/09 09:56:39;;;;;;;25.23;14.70;;;1.20;99.90;;;;;;4972647;28;20467;-70
2022/12/09 09:59:17;;;;;;;22.57;13.40;;;1.30;99.90;;;;;;4971361;28;20499;-70
2022/12/09 10:01:56;;;;;;;23.70;13.50;;;1.20;99.90;;;;;;4970259;28;20446;-69
2022/12/09 10:04:31;;;;;;;22.20;12.50;;;1.20;99.90;;;;;;4968503;28;20481;-71
2022/12/09 10:07:02;;;;;;;21.33;12.60;;;1.20;99.90;;;;;;4971376;28;20449;-71
2022/12/09 10:09:39;;;;;;;24.33;14.40;;;1.10;99.90;;;;;;4970093;28;20470;-70
2022/12/09 10:12:17;;;;;;;25.47;13.57;;;1.10;99.90;;;;;;4968694;28;20450;-71
2022/12/09 10:14:56;;;;;;;25.93;15.37;;;1.10;99.90;;;;;;4968163;28;20895;-72
2022/12/09 10:17:28;;;;;;;23.63;15.23;;;1.00;99.90;;;;;;4967166;28;20461;-71
2022/12/09 10:20:01;;;;;;;22.50;12.20;;;1.00;99.90;;;;;;4970921;28;20446;-70
2022/12/09 10:22:31;;;;;;;26.90;14.13;;;1.10;99.90;;;;;;4967542;28;20558;-69
2022/12/09 10:25:03;;;;;;;27.93;14.90;;;1.10;99.90;;;;;;4964162;28;20468;-71
2022/12/09 10:27:38;;;;;;;27.37;14.60;;;1.20;99.90;;;;;;4967433;28;21008;-72
2022/12/09 10:30:10;;;;;;;24.73;15.60;;;1.10;99.90;;;;;;4968185;28;20918;-69
2022/12/09 10:32:45;;;;;;;22.90;13.90;;;1.10;99.90;;;;;;4969107;28;20541;-68
2022/12/09 10:35:16;;;;;;;31.20;14.93;;;1.10;99.90;;;;;;4969367;28;20485;-69
2022/12/09 10:37:43;;;;;;;21.60;12.80;;;1.20;99.90;;;;;;4966643;28;20442;-68
2022/12/09 10:40:33;;;;;;;21.17;13.47;;;1.10;99.90;;;;;;4967464;28;20464;-68
2022/12/09 10:43:34;;;;;;;26.53;13.03;;;1.00;99.90;;;;;;4965572;28;20497;-68
2022/12/09 10:46:16;;;;;;;28.60;14.10;;;0.80;99.90;;;;;;4967130;28;20445;-69
2022/12/09 10:49:02;;;;;;;23.70;13.10;;;0.80;99.90;;;;;;4966818;28;20740;-69
2022/12/09 10:51:35;;;;;;;26.70;16.50;;;0.90;99.90;;;;;;4967683;28;20561;-68
2022/12/09 10:54:12;;;;;;;25.30;13.50;;;1.00;99.90;;;;;;4966910;28;20453;-69
2022/12/09 10:57:00;;;;;;;24.00;13.93;;;1.00;99.90;;;;;;4968863;28;20449;-68
2022/12/09 10:59:30;;;;;;;27.33;14.43;;;1.00;99.90;;;;;;4966859;28;20443;-69
2022/12/09 11:01:58;;;;;;;23.00;14.70;;;1.00;99.90;;;;;;4965230;28;20961;-69
2022/12/09 11:04:30;;;;;;;24.50;13.87;;;1.00;99.90;;;;;;4970541;28;20508;-69
2022/12/09 11:07:01;;;;;;;26.17;15.30;;;1.00;99.90;;;;;;4968723;28;20452;-69
2022/12/09 11:09:34;;;;;;;26.20;15.27;;;1.10;99.90;;;;;;4969879;28;20564;-69
2022/12/09 11:12:01;;;;;;;26.57;13.90;;;1.10;99.90;;;;;;4968560;28;20580;-72
2022/12/09 11:14:34;;;;;;;22.50;14.30;;;1.20;99.90;;;;;;4970474;28;20477;-70
2022/12/09 11:17:14;;;;;;;32.43;16.43;;;1.20;99.90;;;;;;4963986;28;20599;-69
2022/12/09 11:19:45;;;;;;;23.47;13.50;;;1.20;99.90;;;;;;4963853;28;20894;-69
2022/12/09 11:22:30;;;;;;;33.80;15.73;;;1.20;99.90;;;;;;4964424;28;20595;-69
2022/12/09 11:25:20;;;;;;;24.50;14.40;;;1.20;99.90;;;;;;4964377;28;20454;-69
2022/12/09 11:27:50;;;;;;;22.77;13.20;;;1.30;99.90;;;;;;4966140;28;20450;-72
2022/12/09 11:30:21;;;;;;;29.23;15.30;;;1.40;99.90;;;;;;4965496;28;20460;-69
2022/12/09 11:32:59;;;;;;;28.93;14.37;;;1.30;99.90;;;;;;4965439;28;20450;-69
2022/12/09 11:35:32;;;;;;;27.00;14.20;;;1.40;99.90;;;;;;4964957;28;20497;-70
2022/12/09 11:38:02;;;;;;;25.17;13.60;;;1.40;99.90;;;;;;4965103;28;20536;-71
2022/12/09 11:40:31;;;;;;;28.03;14.80;;;1.50;99.90;;;;;;4965153;28;20473;-70
2022/12/09 11:42:58;;;;;;;27.40;14.13;;;1.40;99.90;;;;;;4965104;28;20454;-72
2022/12/09 11:45:29;;;;;;;27.80;16.43;;;1.40;99.90;;;;;;4965300;28;20474;-70
2022/12/09 11:48:05;;;;;;;23.80;14.70;;;1.30;99.90;;;;;;4959398;28;20461;-69
2022/12/09 11:50:40;;;;;;;30.80;15.77;;;1.30;99.90;;;;;;4963437;28;20466;-70
2022/12/09 11:53:26;;;;;;;28.43;15.87;;;1.40;99.90;;;;;;4966303;28;20454;-69
2022/12/09 11:55:56;;;;;;;29.20;17.27;;;1.30;99.90;;;;;;4966013;28;20489;-69
2022/12/09 11:58:26;;;;;;;25.50;15.13;;;1.20;99.90;;;;;;4966035;28;20814;-69
2022/12/09 12:01:01;;;;;;;26.67;14.10;;;1.20;99.90;;;;;;4966357;28;20579;-70
2022/12/09 12:03:36;;;;;;;27.83;17.40;;;1.20;99.90;;;;;;4965954;28;21034;-69
2022/12/09 12:06:11;;;;;;;23.80;15.10;;;1.10;99.90;;;;;;4969606;28;20546;-69
2022/12/09 12:08:43;;;;;;;28.97;15.13;;;1.30;99.90;;;;;;4965558;28;20958;-69
2022/12/09 12:11:12;;;;;;;29.23;15.90;;;1.40;99.90;;;;;;4950364;29;20482;-70
2022/12/09 12:13:44;;;;;;;24.97;14.47;;;1.30;99.90;;;;;;4967027;28;20516;-69
2022/12/09 12:16:18;;;;;;;31.03;15.20;;;1.20;99.90;;;;;;4969340;28;20522;-70
2022/12/09 12:18:49;;;;;;;27.63;14.97;;;1.30;99.90;;;;;;4974315;28;20467;-70
2022/12/09 12:21:41;;;;;;;26.77;15.83;;;1.40;99.90;;;;;;4967135;28;20461;-69
2022/12/09 12:25:00;;;;;;;24.77;15.20;;;1.60;99.90;;;;;;4969565;28;20446;-69
2022/12/09 12:27:38;;;;;;;30.33;15.37;;;1.70;99.90;;;;;;4908717;29;20482;-69
2022/12/09 12:30:12;;;;;;;23.10;15.37;;;1.70;99.90;;;;;;4909322;29;20456;-69
2022/12/09 12:33:01;;;;;;;28.90;14.87;;;1.60;99.90;;;;;;4942842;28;20444;-69
2022/12/09 12:35:48;;;;;;;25.67;14.30;;;1.50;99.90;;;;;;4967793;28;20501;-70
2022/12/09 12:38:24;;;;;;;50.77;23.97;;;1.60;99.90;;;;;;4969584;28;20972;-70
2022/12/09 12:41:00;;;;;;;24.83;14.23;;;1.20;99.90;;;;;;4968209;28;20456;-70
2022/12/09 12:46:54;;;;;;;23.50;14.30;;;1.30;99.90;;;;;;4969006;28;20437;-69
2022/12/09 12:49:46;;;;;;;25.93;14.10;;;1.40;99.90;;;;;;4968673;28;20874;-69
2022/12/09 12:52:25;;;;;;;25.43;15.17;;;1.40;99.90;;;;;;4949502;29;20589;-70
2022/12/09 12:55:03;;;;;;;26.67;16.40;;;1.40;99.90;;;;;;4950889;28;20579;-69